Terminal Aerodrome Forecast
Issued by NWS Mt. Holly, NJ

Home | Current Version | Previous Version | Text Only | Print | Product List | Glossary On
Versions: 1 2 3 4 5 6 7 8 9 10 11 12 13 14 15
000
FTUS41 KPHI 200500
TAFILG
TAF
KILG 200534Z 2006/2106 VRB03KT P6SM SCT070 BKN120
     FM201400 12006KT P6SM SCT050
     FM201700 17009KT P6SM FEW050
     FM210100 15004KT P6SM SCT040 BKN120=

USA.gov is the U.S. government's official web portal to all federal, state and local government web resources and services.